sensor_id;sensor_type;location;lat;lon;timestamp;P1;durP1;ratioP1;P2;durP2;ratioP2
48550;SDS011;34397;51.176;6.738;2024-03-06T00:00:16;13.20;;;8.93;;
48550;SDS011;34397;51.176;6.738;2024-03-06T00:02:48;13.45;;;9.52;;
48550;SDS011;34397;51.176;6.738;2024-03-06T00:07:54;9.88;;;7.65;;
48550;SDS011;34397;51.176;6.738;2024-03-06T00:10:27;12.10;;;8.63;;
48550;SDS011;34397;51.176;6.738;2024-03-06T00:12:59;10.68;;;7.97;;
48550;SDS011;34397;51.176;6.738;2024-03-06T00:15:31;10.90;;;8.55;;
48550;SDS011;34397;51.176;6.738;2024-03-06T00:18:03;10.35;;;7.82;;
48550;SDS011;34397;51.176;6.738;2024-03-06T00:20:37;13.07;;;8.52;;
48550;SDS011;34397;51.176;6.738;2024-03-06T00:23:10;11.80;;;8.75;;
48550;SDS011;34397;51.176;6.738;2024-03-06T00:25:42;10.80;;;8.45;;
48550;SDS011;34397;51.176;6.738;2024-03-06T00:28:14;12.27;;;9.02;;
48550;SDS011;34397;51.176;6.738;2024-03-06T00:30:46;12.45;;;8.60;;
48550;SDS011;34397;51.176;6.738;2024-03-06T00:33:18;11.13;;;7.85;;
48550;SDS011;34397;51.176;6.738;2024-03-06T00:35:53;14.18;;;9.52;;
48550;SDS011;34397;51.176;6.738;2024-03-06T00:38:26;12.98;;;9.27;;
48550;SDS011;34397;51.176;6.738;2024-03-06T00:40:58;12.57;;;9.95;;
48550;SDS011;34397;51.176;6.738;2024-03-06T00:43:29;12.15;;;9.05;;
48550;SDS011;34397;51.176;6.738;2024-03-06T00:46:02;11.98;;;8.90;;
48550;SDS011;34397;51.176;6.738;2024-03-06T00:48:34;14.00;;;9.43;;
48550;SDS011;34397;51.176;6.738;2024-03-06T00:51:07;16.35;;;9.90;;
48550;SDS011;34397;51.176;6.738;2024-03-06T00:53:39;13.45;;;9.77;;
48550;SDS011;34397;51.176;6.738;2024-03-06T00:56:11;13.10;;;9.90;;
48550;SDS011;34397;51.176;6.738;2024-03-06T00:58:43;14.40;;;9.32;;
48550;SDS011;34397;51.176;6.738;2024-03-06T01:01:15;11.80;;;8.60;;
48550;SDS011;34397;51.176;6.738;2024-03-06T01:03:47;14.35;;;9.93;;
48550;SDS011;34397;51.176;6.738;2024-03-06T01:06:21;13.07;;;9.98;;
48550;SDS011;34397;51.176;6.738;2024-03-06T01:08:53;15.15;;;10.57;;
48550;SDS011;34397;51.176;6.738;2024-03-06T01:11:25;14.60;;;9.98;;
48550;SDS011;34397;51.176;6.738;2024-03-06T01:13:57;14.27;;;10.13;;
48550;SDS011;34397;51.176;6.738;2024-03-06T01:16:29;14.48;;;9.80;;
48550;SDS011;34397;51.176;6.738;2024-03-06T01:19:01;13.48;;;10.07;;
48550;SDS011;34397;51.176;6.738;2024-03-06T01:21:34;13.88;;;9.57;;
48550;SDS011;34397;51.176;6.738;2024-03-06T01:24:06;12.57;;;9.18;;
48550;SDS011;34397;51.176;6.738;2024-03-06T01:26:40;14.20;;;10.30;;
48550;SDS011;34397;51.176;6.738;2024-03-06T01:29:12;13.63;;;10.32;;
48550;SDS011;34397;51.176;6.738;2024-03-06T01:31:45;13.48;;;9.55;;
48550;SDS011;34397;51.176;6.738;2024-03-06T01:34:17;13.98;;;10.35;;
48550;SDS011;34397;51.176;6.738;2024-03-06T01:36:50;13.95;;;10.10;;
48550;SDS011;34397;51.176;6.738;2024-03-06T01:39:22;14.35;;;10.45;;
48550;SDS011;34397;51.176;6.738;2024-03-06T01:41:54;13.90;;;10.40;;
48550;SDS011;34397;51.176;6.738;2024-03-06T01:44:26;12.98;;;9.80;;
48550;SDS011;34397;51.176;6.738;2024-03-06T01:46:58;14.60;;;10.32;;
48550;SDS011;34397;51.176;6.738;2024-03-06T01:49:30;14.80;;;10.25;;
48550;SDS011;34397;51.176;6.738;2024-03-06T01:52:04;17.08;;;11.07;;
48550;SDS011;34397;51.176;6.738;2024-03-06T01:54:37;15.45;;;10.65;;
48550;SDS011;34397;51.176;6.738;2024-03-06T01:57:09;14.50;;;11.00;;
48550;SDS011;34397;51.176;6.738;2024-03-06T01:59:43;14.63;;;10.07;;
48550;SDS011;34397;51.176;6.738;2024-03-06T02:02:15;15.27;;;10.77;;
48550;SDS011;34397;51.176;6.738;2024-03-06T02:04:47;15.30;;;9.65;;
48550;SDS011;34397;51.176;6.738;2024-03-06T02:07:20;13.35;;;9.65;;
48550;SDS011;34397;51.176;6.738;2024-03-06T02:09:53;12.98;;;10.07;;
48550;SDS011;34397;51.176;6.738;2024-03-06T02:12:25;14.38;;;10.00;;
48550;SDS011;34397;51.176;6.738;2024-03-06T02:14:57;14.10;;;9.98;;
48550;SDS011;34397;51.176;6.738;2024-03-06T02:17:29;14.63;;;10.15;;
48550;SDS011;34397;51.176;6.738;2024-03-06T02:20:03;12.80;;;9.18;;
48550;SDS011;34397;51.176;6.738;2024-03-06T02:22:37;13.02;;;9.43;;
48550;SDS011;34397;51.176;6.738;2024-03-06T02:25:09;13.50;;;9.88;;
48550;SDS011;34397;51.176;6.738;2024-03-06T02:27:43;15.35;;;9.45;;
48550;SDS011;34397;51.176;6.738;2024-03-06T02:30:15;13.43;;;9.40;;
48550;SDS011;34397;51.176;6.738;2024-03-06T02:32:50;14.30;;;10.45;;
48550;SDS011;34397;51.176;6.738;2024-03-06T02:35:22;13.02;;;9.63;;
48550;SDS011;34397;51.176;6.738;2024-03-06T02:37:56;14.18;;;10.45;;
48550;SDS011;34397;51.176;6.738;2024-03-06T02:40:27;14.40;;;10.63;;
48550;SDS011;34397;51.176;6.738;2024-03-06T02:42:59;16.25;;;10.23;;
48550;SDS011;34397;51.176;6.738;2024-03-06T02:45:31;12.90;;;9.80;;
48550;SDS011;34397;51.176;6.738;2024-03-06T02:48:04;14.18;;;10.73;;
48550;SDS011;34397;51.176;6.738;2024-03-06T02:50:36;15.77;;;10.57;;
48550;SDS011;34397;51.176;6.738;2024-03-06T02:53:10;14.27;;;10.40;;
48550;SDS011;34397;51.176;6.738;2024-03-06T02:55:42;14.57;;;10.60;;
48550;SDS011;34397;51.176;6.738;2024-03-06T02:58:14;17.67;;;11.30;;
48550;SDS011;34397;51.176;6.738;2024-03-06T03:00:46;13.68;;;10.38;;
48550;SDS011;34397;51.176;6.738;2024-03-06T03:05:50;13.38;;;10.55;;
48550;SDS011;34397;51.176;6.738;2024-03-06T03:08:23;16.85;;;11.48;;
48550;SDS011;34397;51.176;6.738;2024-03-06T03:10:55;14.52;;;11.15;;
48550;SDS011;34397;51.176;6.738;2024-03-06T03:13:27;17.70;;;11.63;;
48550;SDS011;34397;51.176;6.738;2024-03-06T03:16:00;17.38;;;11.25;;
48550;SDS011;34397;51.176;6.738;2024-03-06T03:18:33;15.27;;;11.30;;
48550;SDS011;34397;51.176;6.738;2024-03-06T03:21:08;14.30;;;11.00;;
48550;SDS011;34397;51.176;6.738;2024-03-06T03:23:42;17.10;;;11.90;;
48550;SDS011;34397;51.176;6.738;2024-03-06T03:26:14;18.05;;;12.10;;
48550;SDS011;34397;51.176;6.738;2024-03-06T03:28:46;17.15;;;11.95;;
48550;SDS011;34397;51.176;6.738;2024-03-06T03:31:18;19.17;;;13.07;;
48550;SDS011;34397;51.176;6.738;2024-03-06T03:33:51;18.48;;;12.55;;
48550;SDS011;34397;51.176;6.738;2024-03-06T03:36:23;18.58;;;13.55;;
48550;SDS011;34397;51.176;6.738;2024-03-06T03:38:56;19.77;;;14.27;;
48550;SDS011;34397;51.176;6.738;2024-03-06T03:41:28;24.13;;;14.38;;
48550;SDS011;34397;51.176;6.738;2024-03-06T03:44:00;20.27;;;14.05;;
48550;SDS011;34397;51.176;6.738;2024-03-06T03:46:32;21.08;;;15.23;;
48550;SDS011;34397;51.176;6.738;2024-03-06T03:49:04;21.42;;;14.65;;
48550;SDS011;34397;51.176;6.738;2024-03-06T03:51:37;19.52;;;13.48;;
48550;SDS011;34397;51.176;6.738;2024-03-06T03:54:11;19.55;;;13.52;;
48550;SDS011;34397;51.176;6.738;2024-03-06T03:56:44;18.67;;;13.77;;
48550;SDS011;34397;51.176;6.738;2024-03-06T03:59:16;18.88;;;13.90;;
48550;SDS011;34397;51.176;6.738;2024-03-06T04:01:48;17.90;;;13.65;;
48550;SDS011;34397;51.176;6.738;2024-03-06T04:04:20;19.23;;;13.73;;
48550;SDS011;34397;51.176;6.738;2024-03-06T04:06:52;18.90;;;13.65;;
48550;SDS011;34397;51.176;6.738;2024-03-06T04:09:25;18.45;;;13.43;;
48550;SDS011;34397;51.176;6.738;2024-03-06T04:11:57;17.95;;;13.63;;
48550;SDS011;34397;51.176;6.738;2024-03-06T04:14:29;19.33;;;13.57;;
48550;SDS011;34397;51.176;6.738;2024-03-06T04:17:01;18.58;;;13.20;;
48550;SDS011;34397;51.176;6.738;2024-03-06T04:22:05;18.98;;;13.50;;
48550;SDS011;34397;51.176;6.738;2024-03-06T04:24:41;19.25;;;13.52;;
48550;SDS011;34397;51.176;6.738;2024-03-06T04:27:13;20.00;;;13.80;;
48550;SDS011;34397;51.176;6.738;2024-03-06T04:29:46;17.83;;;12.93;;
48550;SDS011;34397;51.176;6.738;2024-03-06T04:32:23;19.27;;;12.82;;
48550;SDS011;34397;51.176;6.738;2024-03-06T04:34:55;18.70;;;13.10;;
48550;SDS011;34397;51.176;6.738;2024-03-06T04:37:29;17.80;;;13.15;;
48550;SDS011;34397;51.176;6.738;2024-03-06T04:40:08;17.48;;;12.40;;
48550;SDS011;34397;51.176;6.738;2024-03-06T04:42:48;20.52;;;14.13;;
48550;SDS011;34397;51.176;6.738;2024-03-06T04:45:20;19.40;;;13.70;;
48550;SDS011;34397;51.176;6.738;2024-03-06T04:47:51;21.10;;;15.25;;
48550;SDS011;34397;51.176;6.738;2024-03-06T04:50:23;23.70;;;15.57;;
48550;SDS011;34397;51.176;6.738;2024-03-06T04:52:57;20.80;;;14.40;;
48550;SDS011;34397;51.176;6.738;2024-03-06T04:55:30;20.50;;;14.55;;
48550;SDS011;34397;51.176;6.738;2024-03-06T04:58:02;18.80;;;13.68;;
48550;SDS011;34397;51.176;6.738;2024-03-06T05:00:34;20.05;;;14.02;;
48550;SDS011;34397;51.176;6.738;2024-03-06T05:03:06;18.25;;;13.10;;
48550;SDS011;34397;51.176;6.738;2024-03-06T05:05:40;20.98;;;13.70;;
48550;SDS011;34397;51.176;6.738;2024-03-06T05:08:15;17.55;;;12.48;;
48550;SDS011;34397;51.176;6.738;2024-03-06T05:10:49;18.60;;;13.00;;
48550;SDS011;34397;51.176;6.738;2024-03-06T05:13:26;18.80;;;13.57;;
48550;SDS011;34397;51.176;6.738;2024-03-06T05:16:00;20.83;;;14.93;;
48550;SDS011;34397;51.176;6.738;2024-03-06T05:18:32;20.58;;;15.00;;
48550;SDS011;34397;51.176;6.738;2024-03-06T05:21:05;22.25;;;15.75;;
48550;SDS011;34397;51.176;6.738;2024-03-06T05:23:37;24.58;;;16.52;;
48550;SDS011;34397;51.176;6.738;2024-03-06T05:26:10;26.20;;;16.52;;
48550;SDS011;34397;51.176;6.738;2024-03-06T05:28:42;22.73;;;15.88;;
48550;SDS011;34397;51.176;6.738;2024-03-06T05:31:17;23.00;;;15.93;;
48550;SDS011;34397;51.176;6.738;2024-03-06T05:33:50;23.02;;;16.27;;
48550;SDS011;34397;51.176;6.738;2024-03-06T05:36:22;24.90;;;15.93;;
48550;SDS011;34397;51.176;6.738;2024-03-06T05:38:54;23.85;;;15.40;;
48550;SDS011;34397;51.176;6.738;2024-03-06T05:41:27;19.00;;;14.10;;
48550;SDS011;34397;51.176;6.738;2024-03-06T05:43:59;20.45;;;14.93;;
48550;SDS011;34397;51.176;6.738;2024-03-06T05:46:31;22.02;;;14.82;;
48550;SDS011;34397;51.176;6.738;2024-03-06T05:49:03;22.38;;;14.95;;
48550;SDS011;34397;51.176;6.738;2024-03-06T05:51:35;22.40;;;15.00;;
48550;SDS011;34397;51.176;6.738;2024-03-06T05:54:08;20.70;;;14.30;;
48550;SDS011;34397;51.176;6.738;2024-03-06T05:56:44;17.58;;;13.65;;
48550;SDS011;34397;51.176;6.738;2024-03-06T05:59:16;20.00;;;13.95;;
48550;SDS011;34397;51.176;6.738;2024-03-06T06:01:48;20.83;;;14.73;;
48550;SDS011;34397;51.176;6.738;2024-03-06T06:04:20;21.77;;;15.38;;
48550;SDS011;34397;51.176;6.738;2024-03-06T06:06:52;19.88;;;14.77;;
48550;SDS011;34397;51.176;6.738;2024-03-06T06:09:24;24.25;;;14.98;;
48550;SDS011;34397;51.176;6.738;2024-03-06T06:11:58;20.08;;;14.27;;
48550;SDS011;34397;51.176;6.738;2024-03-06T06:14:30;21.48;;;14.73;;
48550;SDS011;34397;51.176;6.738;2024-03-06T06:17:05;19.38;;;13.57;;
48550;SDS011;34397;51.176;6.738;2024-03-06T06:19:37;20.17;;;14.27;;
48550;SDS011;34397;51.176;6.738;2024-03-06T06:22:09;20.10;;;14.43;;
48550;SDS011;34397;51.176;6.738;2024-03-06T06:24:41;20.95;;;14.15;;
48550;SDS011;34397;51.176;6.738;2024-03-06T06:27:15;22.48;;;15.15;;
48550;SDS011;34397;51.176;6.738;2024-03-06T06:29:47;21.65;;;14.35;;
48550;SDS011;34397;51.176;6.738;2024-03-06T06:32:19;20.00;;;14.02;;
48550;SDS011;34397;51.176;6.738;2024-03-06T06:34:50;21.73;;;15.20;;
48550;SDS011;34397;51.176;6.738;2024-03-06T06:37:22;21.33;;;14.95;;
48550;SDS011;34397;51.176;6.738;2024-03-06T06:39:54;27.55;;;14.70;;
48550;SDS011;34397;51.176;6.738;2024-03-06T06:42:27;26.92;;;15.13;;
48550;SDS011;34397;51.176;6.738;2024-03-06T06:44:59;26.67;;;16.65;;
48550;SDS011;34397;51.176;6.738;2024-03-06T06:47:32;43.60;;;18.17;;
48550;SDS011;34397;51.176;6.738;2024-03-06T06:50:04;60.67;;;18.63;;
48550;SDS011;34397;51.176;6.738;2024-03-06T06:52:39;43.72;;;18.48;;
48550;SDS011;34397;51.176;6.738;2024-03-06T06:55:11;124.20;;;19.63;;
48550;SDS011;34397;51.176;6.738;2024-03-06T06:57:44;113.03;;;20.35;;
48550;SDS011;34397;51.176;6.738;2024-03-06T07:00:17;109.88;;;19.52;;
48550;SDS011;34397;51.176;6.738;2024-03-06T07:02:51;70.72;;;18.40;;
48550;SDS011;34397;51.176;6.738;2024-03-06T07:05:24;66.15;;;18.15;;
48550;SDS011;34397;51.176;6.738;2024-03-06T07:07:57;119.82;;;19.50;;
48550;SDS011;34397;51.176;6.738;2024-03-06T07:10:29;78.28;;;18.85;;
48550;SDS011;34397;51.176;6.738;2024-03-06T07:13:03;64.20;;;18.75;;
48550;SDS011;34397;51.176;6.738;2024-03-06T07:15:36;87.80;;;20.25;;
48550;SDS011;34397;51.176;6.738;2024-03-06T07:18:08;44.15;;;17.35;;
48550;SDS011;34397;51.176;6.738;2024-03-06T07:20:40;30.38;;;16.30;;
48550;SDS011;34397;51.176;6.738;2024-03-06T07:23:12;74.45;;;19.10;;
48550;SDS011;34397;51.176;6.738;2024-03-06T07:25:44;84.97;;;22.35;;
48550;SDS011;34397;51.176;6.738;2024-03-06T07:28:19;177.25;;;22.75;;
48550;SDS011;34397;51.176;6.738;2024-03-06T07:30:51;158.95;;;20.85;;
48550;SDS011;34397;51.176;6.738;2024-03-06T07:33:23;134.82;;;20.63;;
48550;SDS011;34397;51.176;6.738;2024-03-06T07:35:58;188.60;;;20.75;;
48550;SDS011;34397;51.176;6.738;2024-03-06T07:38:31;103.93;;;18.42;;
48550;SDS011;34397;51.176;6.738;2024-03-06T07:41:03;114.88;;;21.63;;
48550;SDS011;34397;51.176;6.738;2024-03-06T07:43:37;106.20;;;21.42;;
48550;SDS011;34397;51.176;6.738;2024-03-06T07:46:09;42.65;;;19.80;;
48550;SDS011;34397;51.176;6.738;2024-03-06T07:48:43;50.60;;;20.63;;
48550;SDS011;34397;51.176;6.738;2024-03-06T07:51:17;48.03;;;21.15;;
48550;SDS011;34397;51.176;6.738;2024-03-06T07:53:50;35.67;;;20.58;;
48550;SDS011;34397;51.176;6.738;2024-03-06T07:56:23;38.70;;;20.58;;
48550;SDS011;34397;51.176;6.738;2024-03-06T07:58:59;33.35;;;20.08;;
48550;SDS011;34397;51.176;6.738;2024-03-06T08:01:32;37.17;;;21.17;;
48550;SDS011;34397;51.176;6.738;2024-03-06T08:04:04;32.75;;;21.10;;
48550;SDS011;34397;51.176;6.738;2024-03-06T08:06:36;36.72;;;20.52;;
48550;SDS011;34397;51.176;6.738;2024-03-06T08:09:08;36.17;;;21.08;;
48550;SDS011;34397;51.176;6.738;2024-03-06T08:11:41;33.47;;;21.42;;
48550;SDS011;34397;51.176;6.738;2024-03-06T08:14:14;36.60;;;22.60;;
48550;SDS011;34397;51.176;6.738;2024-03-06T08:16:47;32.45;;;21.27;;
48550;SDS011;34397;51.176;6.738;2024-03-06T08:19:19;36.10;;;21.90;;
48550;SDS011;34397;51.176;6.738;2024-03-06T08:21:51;35.80;;;22.38;;
48550;SDS011;34397;51.176;6.738;2024-03-06T08:24:23;32.17;;;21.05;;
48550;SDS011;34397;51.176;6.738;2024-03-06T08:26:55;39.22;;;21.63;;
48550;SDS011;34397;51.176;6.738;2024-03-06T08:29:28;34.15;;;21.63;;
48550;SDS011;34397;51.176;6.738;2024-03-06T08:32:00;32.28;;;20.50;;
48550;SDS011;34397;51.176;6.738;2024-03-06T08:34:33;32.08;;;20.25;;
48550;SDS011;34397;51.176;6.738;2024-03-06T08:37:06;34.33;;;21.88;;
48550;SDS011;34397;51.176;6.738;2024-03-06T08:42:10;31.58;;;19.02;;
48550;SDS011;34397;51.176;6.738;2024-03-06T08:44:45;33.42;;;20.52;;
48550;SDS011;34397;51.176;6.738;2024-03-06T08:47:17;32.88;;;19.90;;
48550;SDS011;34397;51.176;6.738;2024-03-06T08:49:49;34.25;;;20.63;;
48550;SDS011;34397;51.176;6.738;2024-03-06T08:52:21;34.72;;;21.05;;
48550;SDS011;34397;51.176;6.738;2024-03-06T08:54:52;39.17;;;21.42;;
48550;SDS011;34397;51.176;6.738;2024-03-06T08:57:24;37.78;;;20.75;;
48550;SDS011;34397;51.176;6.738;2024-03-06T08:59:59;38.13;;;21.77;;
48550;SDS011;34397;51.176;6.738;2024-03-06T09:02:31;35.22;;;21.10;;
48550;SDS011;34397;51.176;6.738;2024-03-06T09:05:04;37.25;;;20.65;;
48550;SDS011;34397;51.176;6.738;2024-03-06T09:07:37;36.60;;;21.45;;
48550;SDS011;34397;51.176;6.738;2024-03-06T09:10:10;38.40;;;22.60;;
48550;SDS011;34397;51.176;6.738;2024-03-06T09:12:43;41.63;;;23.65;;
48550;SDS011;34397;51.176;6.738;2024-03-06T09:15:17;43.25;;;24.20;;
48550;SDS011;34397;51.176;6.738;2024-03-06T09:17:49;46.20;;;25.65;;
48550;SDS011;34397;51.176;6.738;2024-03-06T09:20:20;47.10;;;26.42;;
48550;SDS011;34397;51.176;6.738;2024-03-06T09:22:54;43.88;;;24.92;;
48550;SDS011;34397;51.176;6.738;2024-03-06T09:27:58;45.72;;;25.67;;
48550;SDS011;34397;51.176;6.738;2024-03-06T09:30:36;50.80;;;26.15;;
48550;SDS011;34397;51.176;6.738;2024-03-06T09:33:07;49.80;;;25.70;;
48550;SDS011;34397;51.176;6.738;2024-03-06T09:35:39;46.75;;;24.35;;
48550;SDS011;34397;51.176;6.738;2024-03-06T09:38:15;43.20;;;23.40;;
48550;SDS011;34397;51.176;6.738;2024-03-06T09:40:46;42.90;;;23.75;;
48550;SDS011;34397;51.176;6.738;2024-03-06T09:43:19;37.75;;;22.58;;
48550;SDS011;34397;51.176;6.738;2024-03-06T09:45:52;37.38;;;21.85;;
48550;SDS011;34397;51.176;6.738;2024-03-06T09:48:25;37.08;;;22.02;;
48550;SDS011;34397;51.176;6.738;2024-03-06T09:50:57;38.30;;;22.02;;
48550;SDS011;34397;51.176;6.738;2024-03-06T09:53:33;36.72;;;22.55;;
48550;SDS011;34397;51.176;6.738;2024-03-06T09:56:05;40.28;;;22.80;;
48550;SDS011;34397;51.176;6.738;2024-03-06T09:58:38;41.28;;;24.27;;
48550;SDS011;34397;51.176;6.738;2024-03-06T10:01:12;41.30;;;24.75;;
48550;SDS011;34397;51.176;6.738;2024-03-06T10:03:45;40.00;;;23.83;;
48550;SDS011;34397;51.176;6.738;2024-03-06T10:06:17;42.50;;;24.45;;
48550;SDS011;34397;51.176;6.738;2024-03-06T10:08:50;39.20;;;24.23;;
48550;SDS011;34397;51.176;6.738;2024-03-06T10:11:22;39.65;;;24.20;;
48550;SDS011;34397;51.176;6.738;2024-03-06T10:13:54;36.78;;;22.80;;
48550;SDS011;34397;51.176;6.738;2024-03-06T10:16:27;41.03;;;23.23;;
48550;SDS011;34397;51.176;6.738;2024-03-06T10:19:04;37.47;;;22.20;;
48550;SDS011;34397;51.176;6.738;2024-03-06T10:21:47;37.58;;;22.50;;
48550;SDS011;34397;51.176;6.738;2024-03-06T10:24:21;34.75;;;21.35;;
48550;SDS011;34397;51.176;6.738;2024-03-06T10:26:54;36.25;;;21.00;;
48550;SDS011;34397;51.176;6.738;2024-03-06T10:29:30;34.97;;;20.77;;
48550;SDS011;34397;51.176;6.738;2024-03-06T10:32:04;32.25;;;20.02;;
48550;SDS011;34397;51.176;6.738;2024-03-06T10:34:37;32.08;;;19.55;;
48550;SDS011;34397;51.176;6.738;2024-03-06T10:37:10;30.90;;;19.30;;
48550;SDS011;34397;51.176;6.738;2024-03-06T10:39:42;32.58;;;19.20;;
48550;SDS011;34397;51.176;6.738;2024-03-06T10:42:15;30.55;;;18.92;;
48550;SDS011;34397;51.176;6.738;2024-03-06T10:44:52;29.08;;;19.15;;
48550;SDS011;34397;51.176;6.738;2024-03-06T10:47:28;25.63;;;16.75;;
48550;SDS011;34397;51.176;6.738;2024-03-06T10:50:00;23.95;;;15.45;;
48550;SDS011;34397;51.176;6.738;2024-03-06T10:52:40;26.02;;;16.50;;
48550;SDS011;34397;51.176;6.738;2024-03-06T10:55:13;26.27;;;16.90;;
48550;SDS011;34397;51.176;6.738;2024-03-06T10:57:46;25.20;;;16.85;;
48550;SDS011;34397;51.176;6.738;2024-03-06T11:00:20;22.80;;;15.52;;
48550;SDS011;34397;51.176;6.738;2024-03-06T11:05:26;24.75;;;15.55;;
48550;SDS011;34397;51.176;6.738;2024-03-06T11:07:58;23.27;;;15.13;;
48550;SDS011;34397;51.176;6.738;2024-03-06T11:13:04;28.25;;;16.10;;
48550;SDS011;34397;51.176;6.738;2024-03-06T11:15:53;25.10;;;16.35;;
48550;SDS011;34397;51.176;6.738;2024-03-06T11:18:42;26.55;;;15.60;;
48550;SDS011;34397;51.176;6.738;2024-03-06T11:24:18;26.08;;;16.63;;
48550;SDS011;34397;51.176;6.738;2024-03-06T11:26:55;25.58;;;17.73;;
48550;SDS011;34397;51.176;6.738;2024-03-06T11:30:02;25.00;;;16.77;;
48550;SDS011;34397;51.176;6.738;2024-03-06T11:35:32;25.45;;;15.55;;
48550;SDS011;34397;51.176;6.738;2024-03-06T11:38:05;26.00;;;16.33;;
48550;SDS011;34397;51.176;6.738;2024-03-06T11:40:42;27.58;;;17.60;;
48550;SDS011;34397;51.176;6.738;2024-03-06T11:43:21;30.17;;;18.63;;
48550;SDS011;34397;51.176;6.738;2024-03-06T11:46:05;28.45;;;18.90;;
48550;SDS011;34397;51.176;6.738;2024-03-06T11:48:39;28.95;;;18.88;;
48550;SDS011;34397;51.176;6.738;2024-03-06T11:51:12;30.73;;;19.13;;
48550;SDS011;34397;51.176;6.738;2024-03-06T11:53:44;28.10;;;17.73;;
48550;SDS011;34397;51.176;6.738;2024-03-06T11:56:17;30.65;;;19.23;;
48550;SDS011;34397;51.176;6.738;2024-03-06T11:58:50;28.90;;;19.20;;
48550;SDS011;34397;51.176;6.738;2024-03-06T12:01:23;28.27;;;18.42;;
48550;SDS011;34397;51.176;6.738;2024-03-06T12:06:29;27.45;;;18.35;;
48550;SDS011;34397;51.176;6.738;2024-03-06T12:09:01;26.98;;;18.75;;
48550;SDS011;34397;51.176;6.738;2024-03-06T12:11:35;31.50;;;20.27;;
48550;SDS011;34397;51.176;6.738;2024-03-06T12:14:07;32.33;;;20.73;;
48550;SDS011;34397;51.176;6.738;2024-03-06T12:16:40;32.45;;;22.10;;
48550;SDS011;34397;51.176;6.738;2024-03-06T12:19:12;31.45;;;22.08;;
48550;SDS011;34397;51.176;6.738;2024-03-06T12:21:46;30.00;;;21.55;;
48550;SDS011;34397;51.176;6.738;2024-03-06T12:24:19;28.50;;;20.50;;
48550;SDS011;34397;51.176;6.738;2024-03-06T12:26:59;28.83;;;20.00;;
48550;SDS011;34397;51.176;6.738;2024-03-06T12:29:31;25.92;;;19.50;;
48550;SDS011;34397;51.176;6.738;2024-03-06T12:32:15;27.00;;;19.17;;
48550;SDS011;34397;51.176;6.738;2024-03-06T12:34:57;22.15;;;17.98;;
48550;SDS011;34397;51.176;6.738;2024-03-06T12:37:31;23.85;;;17.88;;
48550;SDS011;34397;51.176;6.738;2024-03-06T12:40:04;20.38;;;14.95;;
48550;SDS011;34397;51.176;6.738;2024-03-06T12:42:43;18.83;;;14.85;;
48550;SDS011;34397;51.176;6.738;2024-03-06T12:45:16;17.95;;;13.88;;
48550;SDS011;34397;51.176;6.738;2024-03-06T12:47:48;18.98;;;14.40;;
48550;SDS011;34397;51.176;6.738;2024-03-06T12:50:20;22.95;;;15.38;;
48550;SDS011;34397;51.176;6.738;2024-03-06T12:52:54;16.85;;;13.05;;
48550;SDS011;34397;51.176;6.738;2024-03-06T12:55:27;20.85;;;15.27;;
48550;SDS011;34397;51.176;6.738;2024-03-06T12:57:59;22.15;;;15.30;;
48550;SDS011;34397;51.176;6.738;2024-03-06T13:00:30;20.10;;;14.63;;
48550;SDS011;34397;51.176;6.738;2024-03-06T13:03:03;19.15;;;13.90;;
48550;SDS011;34397;51.176;6.738;2024-03-06T13:05:35;17.85;;;13.68;;
48550;SDS011;34397;51.176;6.738;2024-03-06T13:08:09;17.05;;;13.32;;
48550;SDS011;34397;51.176;6.738;2024-03-06T13:10:44;18.80;;;13.85;;
48550;SDS011;34397;51.176;6.738;2024-03-06T13:13:16;18.33;;;13.55;;
48550;SDS011;34397;51.176;6.738;2024-03-06T13:15:48;20.35;;;14.68;;
48550;SDS011;34397;51.176;6.738;2024-03-06T13:18:20;15.90;;;11.50;;
48550;SDS011;34397;51.176;6.738;2024-03-06T13:20:52;15.13;;;11.63;;
48550;SDS011;34397;51.176;6.738;2024-03-06T13:23:25;16.23;;;11.07;;
48550;SDS011;34397;51.176;6.738;2024-03-06T13:25:57;14.65;;;10.90;;
48550;SDS011;34397;51.176;6.738;2024-03-06T13:28:30;17.02;;;11.65;;
48550;SDS011;34397;51.176;6.738;2024-03-06T13:31:02;16.75;;;12.40;;
48550;SDS011;34397;51.176;6.738;2024-03-06T13:33:37;15.13;;;11.98;;
48550;SDS011;34397;51.176;6.738;2024-03-06T13:36:09;13.48;;;10.93;;
48550;SDS011;34397;51.176;6.738;2024-03-06T13:38:41;15.77;;;12.37;;
48550;SDS011;34397;51.176;6.738;2024-03-06T13:41:13;15.30;;;11.68;;
48550;SDS011;34397;51.176;6.738;2024-03-06T13:43:46;15.07;;;11.68;;
48550;SDS011;34397;51.176;6.738;2024-03-06T13:48:52;13.45;;;10.57;;
48550;SDS011;34397;51.176;6.738;2024-03-06T13:51:23;13.77;;;10.18;;
48550;SDS011;34397;51.176;6.738;2024-03-06T13:53:57;11.48;;;9.43;;
48550;SDS011;34397;51.176;6.738;2024-03-06T13:56:29;10.73;;;8.98;;
48550;SDS011;34397;51.176;6.738;2024-03-06T13:59:00;10.25;;;8.10;;
48550;SDS011;34397;51.176;6.738;2024-03-06T14:01:32;12.48;;;8.70;;
48550;SDS011;34397;51.176;6.738;2024-03-06T14:04:04;10.43;;;8.35;;
48550;SDS011;34397;51.176;6.738;2024-03-06T14:06:36;8.32;;;6.70;;
48550;SDS011;34397;51.176;6.738;2024-03-06T14:09:09;7.50;;;5.60;;
48550;SDS011;34397;51.176;6.738;2024-03-06T14:11:43;7.93;;;5.97;;
48550;SDS011;34397;51.176;6.738;2024-03-06T14:16:47;8.25;;;6.00;;
48550;SDS011;34397;51.176;6.738;2024-03-06T14:21:52;8.35;;;5.65;;
48550;SDS011;34397;51.176;6.738;2024-03-06T14:24:26;8.98;;;5.75;;
48550;SDS011;34397;51.176;6.738;2024-03-06T14:26:58;6.75;;;5.35;;
48550;SDS011;34397;51.176;6.738;2024-03-06T14:29:30;7.35;;;6.07;;
48550;SDS011;34397;51.176;6.738;2024-03-06T14:32:02;10.52;;;5.60;;
48550;SDS011;34397;51.176;6.738;2024-03-06T14:34:34;8.43;;;6.18;;
48550;SDS011;34397;51.176;6.738;2024-03-06T14:37:06;6.95;;;5.53;;
48550;SDS011;34397;51.176;6.738;2024-03-06T14:39:40;7.55;;;5.15;;
48550;SDS011;34397;51.176;6.738;2024-03-06T14:42:13;8.68;;;4.97;;
48550;SDS011;34397;51.176;6.738;2024-03-06T14:44:45;6.90;;;4.10;;
48550;SDS011;34397;51.176;6.738;2024-03-06T14:47:26;6.53;;;3.95;;
48550;SDS011;34397;51.176;6.738;2024-03-06T14:49:58;4.35;;;2.85;;
48550;SDS011;34397;51.176;6.738;2024-03-06T14:52:30;5.63;;;3.58;;
48550;SDS011;34397;51.176;6.738;2024-03-06T14:57:38;4.03;;;3.05;;
48550;SDS011;34397;51.176;6.738;2024-03-06T15:00:11;4.03;;;3.22;;
48550;SDS011;34397;51.176;6.738;2024-03-06T15:02:46;3.97;;;3.17;;
48550;SDS011;34397;51.176;6.738;2024-03-06T15:07:51;5.22;;;4.38;;
48550;SDS011;34397;51.176;6.738;2024-03-06T15:10:24;8.05;;;5.72;;
48550;SDS011;34397;51.176;6.738;2024-03-06T15:12:56;5.22;;;4.10;;
48550;SDS011;34397;51.176;6.738;2024-03-06T15:15:28;5.97;;;4.68;;
48550;SDS011;34397;51.176;6.738;2024-03-06T15:18:00;6.82;;;5.97;;
48550;SDS011;34397;51.176;6.738;2024-03-06T15:23:04;10.75;;;8.27;;
48550;SDS011;34397;51.176;6.738;2024-03-06T15:25:37;11.20;;;8.00;;
48550;SDS011;34397;51.176;6.738;2024-03-06T15:28:09;12.48;;;9.02;;
48550;SDS011;34397;51.176;6.738;2024-03-06T15:33:13;12.35;;;8.68;;
48550;SDS011;34397;51.176;6.738;2024-03-06T15:35:45;12.38;;;9.45;;
48550;SDS011;34397;51.176;6.738;2024-03-06T15:40:51;12.52;;;9.52;;
48550;SDS011;34397;51.176;6.738;2024-03-06T15:43:23;13.38;;;9.80;;
48550;SDS011;34397;51.176;6.738;2024-03-06T15:45:56;13.32;;;9.23;;